sensor_id;sensor_type;location;lat;lon;timestamp;pressure;altitude;pressure_sealevel;temperature;humidity
7321;BME280;3701;49.346;8.798;2022-07-29T00:02:20;99991.31;;;18.04;71.50
7321;BME280;3701;49.346;8.798;2022-07-29T00:04:46;99991.22;;;18.14;72.39
7321;BME280;3701;49.346;8.798;2022-07-29T00:07:11;99992.69;;;18.35;70.99
7321;BME280;3701;49.346;8.798;2022-07-29T00:09:39;99983.03;;;18.25;71.47
7321;BME280;3701;49.346;8.798;2022-07-29T00:12:04;99984.63;;;18.18;71.11
7321;BME280;3701;49.346;8.798;2022-07-29T00:14:30;99985.88;;;18.32;72.55
7321;BME280;3701;49.346;8.798;2022-07-29T00:16:55;99982.56;;;18.30;72.91
7321;BME280;3701;49.346;8.798;2022-07-29T00:19:24;99971.50;;;18.08;72.44
7321;BME280;3701;49.346;8.798;2022-07-29T00:21:49;99960.63;;;17.85;71.69
7321;BME280;3701;49.346;8.798;2022-07-29T00:24:14;99965.22;;;17.83;71.89
7321;BME280;3701;49.346;8.798;2022-07-29T00:26:40;99961.63;;;17.66;72.17
7321;BME280;3701;49.346;8.798;2022-07-29T00:29:07;99955.59;;;17.56;71.96
7321;BME280;3701;49.346;8.798;2022-07-29T00:31:34;99942.63;;;17.45;72.77
7321;BME280;3701;49.346;8.798;2022-07-29T00:34:02;99949.66;;;17.36;73.71
7321;BME280;3701;49.346;8.798;2022-07-29T00:36:33;99954.31;;;17.42;73.83
7321;BME280;3701;49.346;8.798;2022-07-29T00:38:58;99959.53;;;17.34;74.67
7321;BME280;3701;49.346;8.798;2022-07-29T00:41:28;99951.53;;;17.44;74.02
7321;BME280;3701;49.346;8.798;2022-07-29T00:44:01;99950.09;;;17.13;75.16
7321;BME280;3701;49.346;8.798;2022-07-29T00:46:28;99944.97;;;17.12;75.70
7321;BME280;3701;49.346;8.798;2022-07-29T00:48:54;99943.69;;;16.98;76.55
7321;BME280;3701;49.346;8.798;2022-07-29T00:51:19;99942.34;;;16.84;77.39
7321;BME280;3701;49.346;8.798;2022-07-29T00:53:44;99944.75;;;16.77;77.64
7321;BME280;3701;49.346;8.798;2022-07-29T00:56:15;99946.09;;;16.81;77.06
7321;BME280;3701;49.346;8.798;2022-07-29T00:58:43;99945.44;;;16.52;79.39
7321;BME280;3701;49.346;8.798;2022-07-29T01:01:12;99941.41;;;16.75;78.19
7321;BME280;3701;49.346;8.798;2022-07-29T01:03:38;99937.94;;;16.85;77.19
7321;BME280;3701;49.346;8.798;2022-07-29T01:06:03;99944.72;;;16.87;76.80
7321;BME280;3701;49.346;8.798;2022-07-29T01:08:31;99932.66;;;16.85;77.79
7321;BME280;3701;49.346;8.798;2022-07-29T01:11:01;99931.94;;;16.82;78.14
7321;BME280;3701;49.346;8.798;2022-07-29T01:13:27;99933.59;;;16.83;78.35
7321;BME280;3701;49.346;8.798;2022-07-29T01:16:03;99925.28;;;16.78;78.74
7321;BME280;3701;49.346;8.798;2022-07-29T01:18:33;99931.09;;;16.82;78.73
7321;BME280;3701;49.346;8.798;2022-07-29T01:21:09;99936.22;;;16.83;79.19
7321;BME280;3701;49.346;8.798;2022-07-29T01:26:47;99936.44;;;16.72;80.69
7321;BME280;3701;49.346;8.798;2022-07-29T01:31:57;99937.19;;;16.64;81.19
7321;BME280;3701;49.346;8.798;2022-07-29T01:34:53;99935.75;;;16.70;81.04
7321;BME280;3701;49.346;8.798;2022-07-29T01:39:45;99917.38;;;16.60;82.09
7321;BME280;3701;49.346;8.798;2022-07-29T01:45:15;99922.63;;;16.60;82.27
7321;BME280;3701;49.346;8.798;2022-07-29T01:47:49;99915.44;;;16.53;82.57
7321;BME280;3701;49.346;8.798;2022-07-29T01:50:21;99913.50;;;16.55;82.12
7321;BME280;3701;49.346;8.798;2022-07-29T01:52:56;99908.34;;;16.53;82.40
7321;BME280;3701;49.346;8.798;2022-07-29T01:55:29;99908.84;;;16.39;83.12
7321;BME280;3701;49.346;8.798;2022-07-29T01:57:57;99914.16;;;16.29;84.25
7321;BME280;3701;49.346;8.798;2022-07-29T02:00:26;99916.38;;;16.34;83.73
7321;BME280;3701;49.346;8.798;2022-07-29T02:02:53;99907.50;;;16.35;83.89
7321;BME280;3701;49.346;8.798;2022-07-29T02:05:21;99925.38;;;16.31;84.30
7321;BME280;3701;49.346;8.798;2022-07-29T02:07:50;99922.06;;;16.29;84.74
7321;BME280;3701;49.346;8.798;2022-07-29T02:10:23;99902.31;;;16.43;84.85
7321;BME280;3701;49.346;8.798;2022-07-29T02:12:51;99921.75;;;16.42;85.00
7321;BME280;3701;49.346;8.798;2022-07-29T02:15:18;99919.28;;;16.31;84.99
7321;BME280;3701;49.346;8.798;2022-07-29T02:18:09;99909.75;;;16.30;83.86
7321;BME280;3701;49.346;8.798;2022-07-29T02:20:34;99904.75;;;16.26;82.98
7321;BME280;3701;49.346;8.798;2022-07-29T02:23:06;99914.69;;;16.33;83.22
7321;BME280;3701;49.346;8.798;2022-07-29T02:25:32;99910.13;;;16.35;84.15
7321;BME280;3701;49.346;8.798;2022-07-29T02:27:59;99902.91;;;15.99;86.74
7321;BME280;3701;49.346;8.798;2022-07-29T02:30:26;99914.56;;;15.97;87.80
7321;BME280;3701;49.346;8.798;2022-07-29T02:32:55;99909.28;;;15.97;87.91
7321;BME280;3701;49.346;8.798;2022-07-29T02:35:21;99908.34;;;15.88;87.85
7321;BME280;3701;49.346;8.798;2022-07-29T02:37:51;99912.06;;;15.95;87.38
7321;BME280;3701;49.346;8.798;2022-07-29T02:40:38;99908.75;;;15.93;87.54
7321;BME280;3701;49.346;8.798;2022-07-29T02:43:07;99908.75;;;15.93;87.70
7321;BME280;3701;49.346;8.798;2022-07-29T02:45:38;99901.69;;;15.94;87.94
7321;BME280;3701;49.346;8.798;2022-07-29T02:48:11;99898.88;;;15.95;88.74
7321;BME280;3701;49.346;8.798;2022-07-29T02:50:44;99898.31;;;16.01;88.58
7321;BME280;3701;49.346;8.798;2022-07-29T02:53:18;99898.75;;;15.97;87.33
7321;BME280;3701;49.346;8.798;2022-07-29T02:55:49;99891.03;;;15.85;86.40
7321;BME280;3701;49.346;8.798;2022-07-29T02:58:27;99903.19;;;15.96;86.98
7321;BME280;3701;49.346;8.798;2022-07-29T03:00:59;99896.56;;;15.92;87.02
7321;BME280;3701;49.346;8.798;2022-07-29T03:03:32;99901.16;;;15.70;88.38
7321;BME280;3701;49.346;8.798;2022-07-29T03:06:01;99892.56;;;15.68;89.50
7321;BME280;3701;49.346;8.798;2022-07-29T03:08:31;99897.25;;;15.94;88.87
7321;BME280;3701;49.346;8.798;2022-07-29T03:11:00;99895.00;;;15.99;88.95
7321;BME280;3701;49.346;8.798;2022-07-29T03:13:27;99892.81;;;15.95;88.35
7321;BME280;3701;49.346;8.798;2022-07-29T03:15:57;99898.06;;;15.95;88.12
7321;BME280;3701;49.346;8.798;2022-07-29T03:18:26;99900.97;;;15.92;88.14
7321;BME280;3701;49.346;8.798;2022-07-29T03:20:54;99900.97;;;15.92;88.24
7321;BME280;3701;49.346;8.798;2022-07-29T03:23:23;99892.72;;;15.57;90.09
7321;BME280;3701;49.346;8.798;2022-07-29T03:25:50;99899.78;;;15.66;90.75
7321;BME280;3701;49.346;8.798;2022-07-29T03:28:17;99897.66;;;15.89;90.08
7321;BME280;3701;49.346;8.798;2022-07-29T03:30:43;99897.25;;;15.94;88.67
7321;BME280;3701;49.346;8.798;2022-07-29T03:33:10;99900.72;;;15.85;87.97
7321;BME280;3701;49.346;8.798;2022-07-29T03:35:41;99890.19;;;15.85;88.36
7321;BME280;3701;49.346;8.798;2022-07-29T03:38:06;99893.28;;;15.80;88.52
7321;BME280;3701;49.346;8.798;2022-07-29T03:40:51;99898.38;;;15.62;90.00
7321;BME280;3701;49.346;8.798;2022-07-29T03:43:20;99895.22;;;15.59;90.54
7321;BME280;3701;49.346;8.798;2022-07-29T03:45:52;99893.31;;;15.51;90.73
7321;BME280;3701;49.346;8.798;2022-07-29T03:48:22;99894.94;;;15.52;90.81
7321;BME280;3701;49.346;8.798;2022-07-29T03:50:50;99900.06;;;15.53;91.11
7321;BME280;3701;49.346;8.798;2022-07-29T03:53:19;99903.78;;;15.61;91.24
7321;BME280;3701;49.346;8.798;2022-07-29T03:55:51;99897.03;;;15.58;91.63
7321;BME280;3701;49.346;8.798;2022-07-29T03:58:18;99892.16;;;15.63;90.78
7321;BME280;3701;49.346;8.798;2022-07-29T04:00:48;99893.78;;;15.74;89.83
7321;BME280;3701;49.346;8.798;2022-07-29T04:03:17;99897.13;;;15.86;89.83
7321;BME280;3701;49.346;8.798;2022-07-29T04:05:42;99900.72;;;15.95;89.57
7321;BME280;3701;49.346;8.798;2022-07-29T04:08:10;99889.75;;;15.99;89.34
7321;BME280;3701;49.346;8.798;2022-07-29T04:10:35;99890.84;;;15.97;89.34
7321;BME280;3701;49.346;8.798;2022-07-29T04:13:03;99891.31;;;15.82;88.76
7321;BME280;3701;49.346;8.798;2022-07-29T04:15:28;99897.13;;;15.86;88.79
7321;BME280;3701;49.346;8.798;2022-07-29T04:17:56;99899.78;;;15.76;89.35
7321;BME280;3701;49.346;8.798;2022-07-29T04:20:21;99899.88;;;15.75;89.02
7321;BME280;3701;49.346;8.798;2022-07-29T04:22:47;99909.19;;;15.88;89.03
7321;BME280;3701;49.346;8.798;2022-07-29T04:25:14;99903.25;;;15.77;89.56
7321;BME280;3701;49.346;8.798;2022-07-29T04:27:40;99903.53;;;15.54;90.86
7321;BME280;3701;49.346;8.798;2022-07-29T04:30:25;99905.38;;;15.34;92.24
7321;BME280;3701;49.346;8.798;2022-07-29T04:32:50;99903.97;;;15.40;92.29
7321;BME280;3701;49.346;8.798;2022-07-29T04:35:15;99904.50;;;15.53;91.41
7321;BME280;3701;49.346;8.798;2022-07-29T04:37:41;99907.41;;;15.50;91.07
7321;BME280;3701;49.346;8.798;2022-07-29T04:40:09;99904.25;;;15.46;91.58
7321;BME280;3701;49.346;8.798;2022-07-29T04:42:37;99911.84;;;15.30;92.65
7321;BME280;3701;49.346;8.798;2022-07-29T04:45:06;99904.38;;;15.45;91.96
7321;BME280;3701;49.346;8.798;2022-07-29T04:47:33;99920.16;;;15.55;91.72
7321;BME280;3701;49.346;8.798;2022-07-29T04:50:04;99908.25;;;15.60;91.40
7321;BME280;3701;49.346;8.798;2022-07-29T04:52:35;99908.50;;;15.47;92.47
7321;BME280;3701;49.346;8.798;2022-07-29T04:55:05;99914.47;;;15.88;93.10
7321;BME280;3701;49.346;8.798;2022-07-29T04:57:30;99915.41;;;16.62;90.02
7321;BME280;3701;49.346;8.798;2022-07-29T04:59:55;99920.97;;;17.23;86.59
7321;BME280;3701;49.346;8.798;2022-07-29T05:02:21;99927.06;;;17.60;83.20
7321;BME280;3701;49.346;8.798;2022-07-29T05:04:47;99920.28;;;18.01;81.60
7321;BME280;3701;49.346;8.798;2022-07-29T05:07:12;99916.59;;;17.94;80.36
7321;BME280;3701;49.346;8.798;2022-07-29T05:09:40;99933.34;;;18.80;77.03
7321;BME280;3701;49.346;8.798;2022-07-29T05:12:06;99927.81;;;19.16;74.61
7321;BME280;3701;49.346;8.798;2022-07-29T05:14:33;99935.41;;;20.09;72.72
7321;BME280;3701;49.346;8.798;2022-07-29T05:17:01;99932.09;;;20.95;68.55
7321;BME280;3701;49.346;8.798;2022-07-29T05:19:29;99943.13;;;21.06;67.73
7321;BME280;3701;49.346;8.798;2022-07-29T05:21:54;99936.28;;;21.58;66.63
7321;BME280;3701;49.346;8.798;2022-07-29T05:24:19;99935.66;;;21.56;65.10
7321;BME280;3701;49.346;8.798;2022-07-29T05:26:45;99928.50;;;21.57;65.02
7321;BME280;3701;49.346;8.798;2022-07-29T05:29:10;99930.66;;;21.76;64.15
7321;BME280;3701;49.346;8.798;2022-07-29T05:31:38;99940.16;;;22.53;62.86
7321;BME280;3701;49.346;8.798;2022-07-29T05:34:08;99936.06;;;22.72;61.04
7321;BME280;3701;49.346;8.798;2022-07-29T05:36:33;99931.63;;;22.43;61.00
7321;BME280;3701;49.346;8.798;2022-07-29T05:39:01;99936.31;;;22.41;61.68
7321;BME280;3701;49.346;8.798;2022-07-29T05:41:31;99931.44;;;22.45;60.39
7321;BME280;3701;49.346;8.798;2022-07-29T05:43:58;99929.88;;;22.35;61.44
7321;BME280;3701;49.346;8.798;2022-07-29T05:46:27;99941.53;;;23.72;59.56
7321;BME280;3701;49.346;8.798;2022-07-29T05:48:52;99946.63;;;23.67;58.35
7321;BME280;3701;49.346;8.798;2022-07-29T05:51:20;99940.44;;;23.38;58.88
7321;BME280;3701;49.346;8.798;2022-07-29T05:53:45;99948.78;;;24.41;55.22
7321;BME280;3701;49.346;8.798;2022-07-29T05:56:12;99950.38;;;25.59;52.63
7321;BME280;3701;49.346;8.798;2022-07-29T05:58:39;99943.03;;;24.86;50.52
7321;BME280;3701;49.346;8.798;2022-07-29T06:01:05;99945.00;;;25.59;50.05
7321;BME280;3701;49.346;8.798;2022-07-29T06:03:32;99945.81;;;25.39;48.19
7321;BME280;3701;49.346;8.798;2022-07-29T06:05:58;99945.31;;;24.89;48.99
7321;BME280;3701;49.346;8.798;2022-07-29T06:08:23;99959.41;;;25.58;48.75
7321;BME280;3701;49.346;8.798;2022-07-29T06:10:48;99953.25;;;25.78;47.60
7321;BME280;3701;49.346;8.798;2022-07-29T06:13:14;99952.34;;;25.17;48.64
7321;BME280;3701;49.346;8.798;2022-07-29T06:15:43;99952.97;;;24.16;50.99
7321;BME280;3701;49.346;8.798;2022-07-29T06:18:12;99958.88;;;24.11;53.40
7321;BME280;3701;49.346;8.798;2022-07-29T06:20:38;99950.34;;;23.66;53.70
7321;BME280;3701;49.346;8.798;2022-07-29T06:23:06;99941.84;;;22.76;54.47
7321;BME280;3701;49.346;8.798;2022-07-29T06:25:36;99946.03;;;22.85;55.50
7321;BME280;3701;49.346;8.798;2022-07-29T06:28:02;99955.22;;;23.19;56.03
7321;BME280;3701;49.346;8.798;2022-07-29T06:30:29;99961.34;;;24.13;55.11
7321;BME280;3701;49.346;8.798;2022-07-29T06:32:55;99966.13;;;24.59;52.54
7321;BME280;3701;49.346;8.798;2022-07-29T06:35:23;99960.72;;;24.87;50.11
7321;BME280;3701;49.346;8.798;2022-07-29T06:37:53;99961.75;;;24.44;49.55
7321;BME280;3701;49.346;8.798;2022-07-29T06:40:18;99969.50;;;24.81;50.97
7321;BME280;3701;49.346;8.798;2022-07-29T06:43:02;99970.72;;;24.72;51.90
7321;BME280;3701;49.346;8.798;2022-07-29T06:45:27;99965.53;;;24.28;52.21
7321;BME280;3701;49.346;8.798;2022-07-29T06:47:53;99965.69;;;24.20;53.12
7321;BME280;3701;49.346;8.798;2022-07-29T06:50:18;99970.66;;;24.23;53.43
7321;BME280;3701;49.346;8.798;2022-07-29T06:52:43;99968.13;;;24.08;54.80
7321;BME280;3701;49.346;8.798;2022-07-29T06:55:09;99970.97;;;24.07;54.99
7321;BME280;3701;49.346;8.798;2022-07-29T06:57:39;99964.16;;;23.76;55.45
7321;BME280;3701;49.346;8.798;2022-07-29T07:00:05;99972.16;;;23.76;55.17
7321;BME280;3701;49.346;8.798;2022-07-29T07:02:33;99968.94;;;23.38;55.19
7321;BME280;3701;49.346;8.798;2022-07-29T07:04:58;99973.59;;;23.50;56.04
7321;BME280;3701;49.346;8.798;2022-07-29T07:07:26;99970.69;;;23.52;53.99
7321;BME280;3701;49.346;8.798;2022-07-29T07:09:51;99976.97;;;24.16;51.93
7321;BME280;3701;49.346;8.798;2022-07-29T07:12:19;99978.31;;;24.05;54.82
7321;BME280;3701;49.346;8.798;2022-07-29T07:14:44;99980.66;;;24.15;54.84
7321;BME280;3701;49.346;8.798;2022-07-29T07:17:09;99977.19;;;23.64;54.00
7321;BME280;3701;49.346;8.798;2022-07-29T07:19:35;99977.00;;;23.44;54.73
7321;BME280;3701;49.346;8.798;2022-07-29T07:22:02;99984.31;;;23.36;54.69
7321;BME280;3701;49.346;8.798;2022-07-29T07:24:28;99974.97;;;23.25;55.65
7321;BME280;3701;49.346;8.798;2022-07-29T07:26:53;99986.19;;;23.85;55.89
7321;BME280;3701;49.346;8.798;2022-07-29T07:29:19;99987.06;;;23.92;55.78
7321;BME280;3701;49.346;8.798;2022-07-29T07:31:46;99985.78;;;23.81;56.07
7321;BME280;3701;49.346;8.798;2022-07-29T07:34:12;99992.03;;;24.58;54.64
7321;BME280;3701;49.346;8.798;2022-07-29T07:36:37;99989.25;;;24.45;54.04
7321;BME280;3701;49.346;8.798;2022-07-29T07:39:05;99999.72;;;26.10;51.72
7321;BME280;3701;49.346;8.798;2022-07-29T07:41:30;99985.31;;;25.91;50.12
7321;BME280;3701;49.346;8.798;2022-07-29T07:43:55;99991.88;;;26.15;51.49
7321;BME280;3701;49.346;8.798;2022-07-29T07:46:21;99976.88;;;25.87;50.60
7321;BME280;3701;49.346;8.798;2022-07-29T07:48:49;99986.53;;;25.48;51.81
7321;BME280;3701;49.346;8.798;2022-07-29T07:51:14;99990.66;;;26.31;51.90
7321;BME280;3701;49.346;8.798;2022-07-29T07:53:39;99987.41;;;26.09;53.14
7321;BME280;3701;49.346;8.798;2022-07-29T07:56:05;99990.91;;;26.81;50.75
7321;BME280;3701;49.346;8.798;2022-07-29T07:58:31;99977.69;;;26.21;51.80
7321;BME280;3701;49.346;8.798;2022-07-29T08:01:00;99978.59;;;26.67;50.81
7321;BME280;3701;49.346;8.798;2022-07-29T08:03:25;99991.00;;;27.06;49.91
7321;BME280;3701;49.346;8.798;2022-07-29T08:05:50;99989.31;;;26.74;50.98
7321;BME280;3701;49.346;8.798;2022-07-29T08:08:19;99987.16;;;25.90;52.79
7321;BME280;3701;49.346;8.798;2022-07-29T08:10:47;99982.88;;;25.96;52.10
7321;BME280;3701;49.346;8.798;2022-07-29T08:13:25;99989.66;;;26.19;53.70
7321;BME280;3701;49.346;8.798;2022-07-29T08:15:54;99989.53;;;26.65;50.21
7321;BME280;3701;49.346;8.798;2022-07-29T08:18:24;99997.00;;;27.91;48.69
7321;BME280;3701;49.346;8.798;2022-07-29T08:20:50;99989.97;;;28.15;47.38
7321;BME280;3701;49.346;8.798;2022-07-29T08:23:16;99994.19;;;28.48;46.70
7321;BME280;3701;49.346;8.798;2022-07-29T08:25:41;99993.56;;;29.01;46.73
7321;BME280;3701;49.346;8.798;2022-07-29T08:28:07;99994.94;;;29.22;46.05
7321;BME280;3701;49.346;8.798;2022-07-29T08:30:35;99992.97;;;29.41;45.61
7321;BME280;3701;49.346;8.798;2022-07-29T08:33:00;99991.63;;;29.51;46.00
7321;BME280;3701;49.346;8.798;2022-07-29T08:35:27;100003.50;;;29.97;45.79
7321;BME280;3701;49.346;8.798;2022-07-29T08:37:53;99998.25;;;30.02;43.22
7321;BME280;3701;49.346;8.798;2022-07-29T08:40:19;100001.16;;;30.36;42.57
7321;BME280;3701;49.346;8.798;2022-07-29T08:42:51;99994.88;;;29.41;43.71
7321;BME280;3701;49.346;8.798;2022-07-29T08:45:23;99988.66;;;28.24;46.77
7321;BME280;3701;49.346;8.798;2022-07-29T08:47:51;99994.69;;;27.44;48.61
7321;BME280;3701;49.346;8.798;2022-07-29T08:50:19;99997.03;;;27.34;48.58
7321;BME280;3701;49.346;8.798;2022-07-29T08:52:45;100000.41;;;27.54;49.25
7321;BME280;3701;49.346;8.798;2022-07-29T08:55:11;100008.56;;;28.16;48.10
7321;BME280;3701;49.346;8.798;2022-07-29T08:57:38;100012.00;;;29.16;47.87
7321;BME280;3701;49.346;8.798;2022-07-29T09:00:08;100022.00;;;30.05;45.32
7321;BME280;3701;49.346;8.798;2022-07-29T09:02:39;99999.19;;;29.12;44.83
7321;BME280;3701;49.346;8.798;2022-07-29T09:05:09;100000.03;;;29.54;44.25
7321;BME280;3701;49.346;8.798;2022-07-29T09:07:35;100000.09;;;29.24;45.53
7321;BME280;3701;49.346;8.798;2022-07-29T09:10:04;100001.63;;;29.86;45.48
7321;BME280;3701;49.346;8.798;2022-07-29T09:12:30;100003.97;;;30.17;44.15
7321;BME280;3701;49.346;8.798;2022-07-29T09:14:55;99998.47;;;30.36;42.02
7321;BME280;3701;49.346;8.798;2022-07-29T09:17:41;99992.41;;;28.79;45.93
7321;BME280;3701;49.346;8.798;2022-07-29T09:20:18;99997.72;;;28.05;48.58
7321;BME280;3701;49.346;8.798;2022-07-29T09:22:45;100007.03;;;28.64;47.91
7321;BME280;3701;49.346;8.798;2022-07-29T09:25:15;100005.72;;;29.34;45.02
7321;BME280;3701;49.346;8.798;2022-07-29T09:28:05;100000.47;;;30.17;45.16
7321;BME280;3701;49.346;8.798;2022-07-29T09:30:33;99996.91;;;30.28;43.13
7321;BME280;3701;49.346;8.798;2022-07-29T09:33:02;99989.34;;;29.90;43.25
7321;BME280;3701;49.346;8.798;2022-07-29T09:35:29;99993.47;;;29.38;46.14
7321;BME280;3701;49.346;8.798;2022-07-29T09:37:55;99996.00;;;29.03;45.38
7321;BME280;3701;49.346;8.798;2022-07-29T09:40:26;99995.00;;;28.30;46.43
7321;BME280;3701;49.346;8.798;2022-07-29T09:42:54;99985.97;;;27.17;49.01
7321;BME280;3701;49.346;8.798;2022-07-29T09:45:33;100000.34;;;27.61;49.96
7321;BME280;3701;49.346;8.798;2022-07-29T09:47:59;100012.09;;;28.35;49.66
7321;BME280;3701;49.346;8.798;2022-07-29T09:50:43;100000.44;;;28.97;47.50
7321;BME280;3701;49.346;8.798;2022-07-29T09:53:29;100004.06;;;29.21;47.66
7321;BME280;3701;49.346;8.798;2022-07-29T09:55:57;99996.06;;;29.69;46.08
7321;BME280;3701;49.346;8.798;2022-07-29T09:58:23;99997.19;;;29.91;44.97
7321;BME280;3701;49.346;8.798;2022-07-29T10:00:50;99985.00;;;30.00;45.20
7321;BME280;3701;49.346;8.798;2022-07-29T10:03:16;99989.00;;;30.74;42.38
7321;BME280;3701;49.346;8.798;2022-07-29T10:05:44;99986.97;;;30.81;43.08
7321;BME280;3701;49.346;8.798;2022-07-29T10:08:19;99985.94;;;31.57;42.08
7321;BME280;3701;49.346;8.798;2022-07-29T10:10:49;99989.91;;;31.37;41.31
7321;BME280;3701;49.346;8.798;2022-07-29T10:13:15;99987.69;;;32.02;40.42
7321;BME280;3701;49.346;8.798;2022-07-29T10:15:43;99980.50;;;32.08;39.66
7321;BME280;3701;49.346;8.798;2022-07-29T10:18:12;99981.06;;;32.32;39.63
7321;BME280;3701;49.346;8.798;2022-07-29T10:20:44;99978.25;;;32.04;40.05
7321;BME280;3701;49.346;8.798;2022-07-29T10:23:09;99980.09;;;31.82;40.83
7321;BME280;3701;49.346;8.798;2022-07-29T10:25:34;99981.03;;;32.71;39.20
7321;BME280;3701;49.346;8.798;2022-07-29T10:28:00;99978.19;;;32.38;39.65
7321;BME280;3701;49.346;8.798;2022-07-29T10:30:26;99969.19;;;31.94;38.94
7321;BME280;3701;49.346;8.798;2022-07-29T10:46:19;99970.63;;;32.35;40.48
7321;BME280;3701;49.346;8.798;2022-07-29T10:49:15;99965.59;;;32.66;40.16
7321;BME280;3701;49.346;8.798;2022-07-29T10:54:16;99953.88;;;31.99;38.79
7321;BME280;3701;49.346;8.798;2022-07-29T10:56:44;99957.03;;;31.91;39.92
7321;BME280;3701;49.346;8.798;2022-07-29T11:01:48;99969.53;;;31.29;40.05
7321;BME280;3701;49.346;8.798;2022-07-29T11:07:17;99951.22;;;31.48;38.74
7321;BME280;3701;49.346;8.798;2022-07-29T11:09:42;99952.94;;;30.63;41.02
7321;BME280;3701;49.346;8.798;2022-07-29T11:15:04;99962.16;;;31.08;40.67
7321;BME280;3701;49.346;8.798;2022-07-29T11:20:41;99952.03;;;31.15;40.03
7321;BME280;3701;49.346;8.798;2022-07-29T11:25:45;99953.38;;;32.41;37.09
7321;BME280;3701;49.346;8.798;2022-07-29T11:28:19;99951.09;;;32.33;38.14
7321;BME280;3701;49.346;8.798;2022-07-29T11:30:51;99945.38;;;32.08;38.90
7321;BME280;3701;49.346;8.798;2022-07-29T11:33:33;99935.03;;;32.04;37.93
7321;BME280;3701;49.346;8.798;2022-07-29T11:36:14;99937.41;;;32.18;37.97
7321;BME280;3701;49.346;8.798;2022-07-29T11:38:42;99929.22;;;31.74;38.49
7321;BME280;3701;49.346;8.798;2022-07-29T11:41:20;99939.34;;;32.22;37.34
7321;BME280;3701;49.346;8.798;2022-07-29T11:43:57;99934.44;;;32.41;36.91
7321;BME280;3701;49.346;8.798;2022-07-29T11:46:46;99925.47;;;32.14;37.17
7321;BME280;3701;49.346;8.798;2022-07-29T11:49:13;99917.19;;;31.47;36.58
7321;BME280;3701;49.346;8.798;2022-07-29T11:51:50;99920.94;;;31.80;37.39
7321;BME280;3701;49.346;8.798;2022-07-29T11:54:32;99908.69;;;31.73;38.44
7321;BME280;3701;49.346;8.798;2022-07-29T11:57:00;99924.38;;;32.15;38.08
7321;BME280;3701;49.346;8.798;2022-07-29T11:59:31;99928.13;;;32.31;37.89
7321;BME280;3701;49.346;8.798;2022-07-29T12:01:58;99926.91;;;32.21;36.96
7321;BME280;3701;49.346;8.798;2022-07-29T12:04:24;99932.72;;;32.30;38.87
7321;BME280;3701;49.346;8.798;2022-07-29T12:06:55;99918.41;;;32.57;36.88
7321;BME280;3701;49.346;8.798;2022-07-29T12:09:22;99924.25;;;32.49;37.31
7321;BME280;3701;49.346;8.798;2022-07-29T12:11:57;99912.47;;;32.82;36.36
7321;BME280;3701;49.346;8.798;2022-07-29T12:14:30;99892.53;;;32.61;36.03
7321;BME280;3701;49.346;8.798;2022-07-29T12:16:56;99875.09;;;32.52;35.50
7321;BME280;3701;49.346;8.798;2022-07-29T12:19:21;99882.59;;;32.44;35.82
7321;BME280;3701;49.346;8.798;2022-07-29T12:21:52;99872.91;;;32.04;35.62
7321;BME280;3701;49.346;8.798;2022-07-29T12:24:18;99885.38;;;32.05;36.07
7321;BME280;3701;49.346;8.798;2022-07-29T12:26:51;99874.69;;;31.55;36.66
7321;BME280;3701;49.346;8.798;2022-07-29T12:29:17;99881.09;;;32.10;35.54
7321;BME280;3701;49.346;8.798;2022-07-29T12:31:44;99884.25;;;32.46;36.16
7321;BME280;3701;49.346;8.798;2022-07-29T12:34:14;99883.22;;;32.52;35.57
7321;BME280;3701;49.346;8.798;2022-07-29T12:36:41;99885.81;;;32.41;35.66
7321;BME280;3701;49.346;8.798;2022-07-29T12:39:08;99878.69;;;32.08;36.59
7321;BME280;3701;49.346;8.798;2022-07-29T12:41:36;99875.09;;;31.85;36.15
7321;BME280;3701;49.346;8.798;2022-07-29T12:44:02;99880.88;;;31.94;36.66
7321;BME280;3701;49.346;8.798;2022-07-29T12:46:30;99868.06;;;31.45;38.07
7321;BME280;3701;49.346;8.798;2022-07-29T12:48:57;99866.69;;;31.09;38.57
7321;BME280;3701;49.346;8.798;2022-07-29T12:51:39;99866.34;;;31.56;37.83
7321;BME280;3701;49.346;8.798;2022-07-29T12:54:14;99867.78;;;31.81;38.16
7321;BME280;3701;49.346;8.798;2022-07-29T12:56:44;99864.13;;;31.92;35.65
7321;BME280;3701;49.346;8.798;2022-07-29T12:59:20;99861.88;;;32.06;36.55
7321;BME280;3701;49.346;8.798;2022-07-29T13:01:47;99860.31;;;31.15;37.84
7321;BME280;3701;49.346;8.798;2022-07-29T13:04:33;99867.34;;;31.16;37.92
7321;BME280;3701;49.346;8.798;2022-07-29T13:07:06;99863.06;;;31.54;36.89
7321;BME280;3701;49.346;8.798;2022-07-29T13:09:44;99893.91;;;31.24;37.57
7321;BME280;3701;49.346;8.798;2022-07-29T13:12:13;99903.88;;;31.24;37.98
7321;BME280;3701;49.346;8.798;2022-07-29T13:14:40;99911.94;;;30.78;37.37
7321;BME280;3701;49.346;8.798;2022-07-29T13:17:16;99915.97;;;31.04;37.39
7321;BME280;3701;49.346;8.798;2022-07-29T13:19:52;99920.72;;;30.85;37.24
7321;BME280;3701;49.346;8.798;2022-07-29T13:22:23;99912.72;;;30.21;37.78
7321;BME280;3701;49.346;8.798;2022-07-29T13:24:57;99921.22;;;30.53;38.21
7321;BME280;3701;49.346;8.798;2022-07-29T13:27:27;99923.50;;;30.21;38.98
7321;BME280;3701;49.346;8.798;2022-07-29T13:29:59;99915.06;;;30.17;38.13
7321;BME280;3701;49.346;8.798;2022-07-29T13:32:26;99926.88;;;30.28;38.55
7321;BME280;3701;49.346;8.798;2022-07-29T13:34:52;99924.34;;;30.10;39.50
7321;BME280;3701;49.346;8.798;2022-07-29T13:37:18;99933.75;;;29.83;40.10
7321;BME280;3701;49.346;8.798;2022-07-29T13:39:43;99916.50;;;29.49;39.08
7321;BME280;3701;49.346;8.798;2022-07-29T13:42:12;99934.63;;;29.42;39.75
7321;BME280;3701;49.346;8.798;2022-07-29T13:44:40;99930.22;;;29.71;40.30
7321;BME280;3701;49.346;8.798;2022-07-29T13:47:07;99940.97;;;29.71;39.79
7321;BME280;3701;49.346;8.798;2022-07-29T13:49:33;99922.88;;;29.13;39.59
7321;BME280;3701;49.346;8.798;2022-07-29T13:52:02;99935.56;;;29.36;40.28
7321;BME280;3701;49.346;8.798;2022-07-29T13:54:28;99931.00;;;29.24;40.19
7321;BME280;3701;49.346;8.798;2022-07-29T13:56:56;99925.75;;;28.99;39.75
7321;BME280;3701;49.346;8.798;2022-07-29T13:59:21;99930.09;;;29.12;39.82
7321;BME280;3701;49.346;8.798;2022-07-29T14:01:47;99930.16;;;29.36;39.71
7321;BME280;3701;49.346;8.798;2022-07-29T14:04:14;99918.63;;;29.59;39.18
7321;BME280;3701;49.346;8.798;2022-07-29T14:06:43;99917.19;;;29.56;39.43
7321;BME280;3701;49.346;8.798;2022-07-29T14:09:11;99925.31;;;29.80;38.76
7321;BME280;3701;49.346;8.798;2022-07-29T14:11:36;99916.78;;;29.83;39.75
7321;BME280;3701;49.346;8.798;2022-07-29T14:14:03;99915.59;;;29.67;38.94